Scout — WCZ5277 — position and weather

sailwx.info

Track history (hours):
 
Tides and Currents Weather Stations Pressure Air Temp Water Temp Dewpoint Dewpoint Depression Visibility Wind Speed Wind Dir Waves Ship Positions

Scout

Owner: ERGON MARINE & INDUSTRIAL SUPPLY, VICKSBURG, MS. More information available from US FCC via Universal Licensing System.

Last reported at 2016-Sep-28 21:11 UTC. Time now 2016-Sep-29 23:49 UTC.
Position N 32°23' W 090°53'.

Length 14 m.

Type: Towing. MMSI: 367402890.

Date/timePositionNaut miles runAvg speedWind from/ knotsBaromVisibWave heightAir tempDewpointWater temp
2016-Sep-28 21:11N 32°23' W 090°53'0 0.0
2016-Sep-28 19:33N 32°23' W 090°53'0 0.0
2016-Sep-28 16:33N 32°23' W 090°53'0 0.0
2016-Sep-28 15:33N 32°23' W 090°53'2 0.6
2016-Sep-28 12:33N 32°21' W 090°53'2 0.4
2016-Sep-28 08:33N 32°20' W 090°54'0 0.0
2016-Sep-28 03:33N 32°20' W 090°54'0 0.0
2016-Sep-28 02:33N 32°20' W 090°54'0 0.0
2016-Sep-27 19:33N 32°20' W 090°54'  
2016-Sep-19 19:33N 32°21' W 090°57'1 1.1
2016-Sep-19 18:33N 32°21' W 090°58'4 2.2
2016-Sep-19 16:33N 32°22' W 090°53'1 0.4
2016-Sep-19 14:33N 32°23' W 090°53'0 0.0
2016-Sep-19 13:33N 32°23' W 090°53'2 2.0
2016-Sep-19 12:33N 32°21' W 090°53'2 0.6
2016-Sep-19 09:34N 32°20' W 090°54'2 1.1
2016-Sep-19 07:34N 32°18' W 090°55'0 0.2
2016-Sep-19 06:34N 32°18' W 090°55'2 0.6
2016-Sep-19 03:34N 32°19' W 090°54'1 1.1
2016-Sep-19 02:34N 32°20' W 090°54'0 0.0
2016-Sep-19 00:33N 32°21' W 090°54'  
Track history (hours):
 
Tides and Currents Weather Stations Pressure Air Temp Water Temp Dewpoint Dewpoint Depression Visibility Wind Speed Wind Dir Waves Ship Positions

Scout

Owner: ERGON MARINE & INDUSTRIAL SUPPLY, VICKSBURG, MS. More information available from US FCC via Universal Licensing System.

Last reported at 2016-Sep-28 21:11 UTC. Time now 2016-Sep-29 23:49 UTC.
Position N 32°23' W 090°53'.

Length 14 m.

Type: Towing. MMSI: 367402890.

Date/timePositionNaut miles runAvg speedWind from/ knotsBaromVisibWave heightAir tempDewpointWater temp
2016-Sep-28 21:11N 32°23' W 090°53'0 0.0
2016-Sep-28 19:33N 32°23' W 090°53'0 0.0
2016-Sep-28 16:33N 32°23' W 090°53'0 0.0
2016-Sep-28 15:33N 32°23' W 090°53'2 0.6
2016-Sep-28 12:33N 32°21' W 090°53'2 0.4
2016-Sep-28 08:33N 32°20' W 090°54'0 0.0
2016-Sep-28 03:33N 32°20' W 090°54'0 0.0
2016-Sep-28 02:33N 32°20' W 090°54'0 0.0
2016-Sep-27 19:33N 32°20' W 090°54'  
2016-Sep-19 19:33N 32°21' W 090°57'1 1.1
2016-Sep-19 18:33N 32°21' W 090°58'4 2.2
2016-Sep-19 16:33N 32°22' W 090°53'1 0.4
2016-Sep-19 14:33N 32°23' W 090°53'0 0.0
2016-Sep-19 13:33N 32°23' W 090°53'2 2.0
2016-Sep-19 12:33N 32°21' W 090°53'2 0.6
2016-Sep-19 09:34N 32°20' W 090°54'2 1.1
2016-Sep-19 07:34N 32°18' W 090°55'0 0.2
2016-Sep-19 06:34N 32°18' W 090°55'2 0.6
2016-Sep-19 03:34N 32°19' W 090°54'1 1.1
2016-Sep-19 02:34N 32°20' W 090°54'0 0.0
2016-Sep-19 00:33N 32°21' W 090°54'  

Dump ship's entire track history